createdAt,value
2023-04-30T00:00:08.593Z,14.10
2023-04-30T00:02:36.451Z,14.10
2023-04-30T00:05:03.312Z,14.10
2023-04-30T00:07:30.642Z,13.90
2023-04-30T00:09:57.823Z,13.90
2023-04-30T00:12:24.779Z,13.90
2023-04-30T00:14:51.715Z,13.90
2023-04-30T00:17:19.578Z,13.90
2023-04-30T00:19:46.884Z,13.90
2023-04-30T00:22:14.035Z,13.90
2023-04-30T00:24:40.736Z,13.90
2023-04-30T00:27:08.181Z,13.80
2023-04-30T00:29:35.040Z,13.80
2023-04-30T00:32:02.017Z,13.70
2023-04-30T00:34:28.964Z,13.70
2023-04-30T00:36:55.955Z,13.70
2023-04-30T00:39:23.996Z,13.70
2023-04-30T00:41:50.821Z,13.70
2023-04-30T00:44:17.719Z,13.70
2023-04-30T00:46:44.555Z,13.70
2023-04-30T00:49:11.440Z,13.60
2023-04-30T00:51:41.292Z,13.60
2023-04-30T00:54:09.346Z,13.60
2023-04-30T00:56:36.392Z,13.50
2023-04-30T00:59:03.179Z,13.40
2023-04-30T01:01:30.191Z,13.30
2023-04-30T01:03:57.062Z,13.30
2023-04-30T01:06:25.745Z,13.30
2023-04-30T01:08:53.458Z,13.20
2023-04-30T01:11:33.821Z,13.10
2023-04-30T01:14:12.326Z,13.10
2023-04-30T01:16:48.811Z,13.10
2023-04-30T01:19:37.777Z,13.10
2023-04-30T01:22:05.274Z,13.10
2023-04-30T01:24:59.817Z,13.00
2023-04-30T01:28:05.571Z,13.00
2023-04-30T01:30:33.848Z,12.90
2023-04-30T01:33:01.181Z,12.80
2023-04-30T01:35:58.864Z,12.80
2023-04-30T01:38:57.691Z,12.80
2023-04-30T01:41:42.889Z,12.80
2023-04-30T01:44:47.681Z,12.70
2023-04-30T01:47:25.115Z,12.70
2023-04-30T01:50:31.229Z,12.70
2023-04-30T01:53:03.008Z,12.70
2023-04-30T01:55:51.426Z,12.60
2023-04-30T01:58:20.481Z,12.60
2023-04-30T02:00:47.339Z,12.50
2023-04-30T02:03:14.410Z,12.40
2023-04-30T02:05:41.421Z,12.30
2023-04-30T02:08:08.435Z,12.20
2023-04-30T02:10:37.967Z,12.30
2023-04-30T02:13:04.822Z,12.30
2023-04-30T02:15:32.745Z,12.20
2023-04-30T02:17:59.773Z,12.30
2023-04-30T02:20:26.580Z,12.30
2023-04-30T02:22:53.483Z,12.30
2023-04-30T02:25:20.780Z,12.20
2023-04-30T02:27:47.818Z,12.30
2023-04-30T02:30:15.891Z,12.20
2023-04-30T02:32:42.827Z,12.20
2023-04-30T02:35:10.128Z,12.20
2023-04-30T02:37:37.129Z,12.10
2023-04-30T02:40:05.148Z,12.10
2023-04-30T02:42:31.986Z,12.10
2023-04-30T02:44:59.382Z,12.10
2023-04-30T02:47:26.316Z,12.00
2023-04-30T02:49:53.401Z,12.00
2023-04-30T02:52:21.868Z,12.00
2023-04-30T02:54:49.097Z,12.10
2023-04-30T02:57:17.467Z,12.10
2023-04-30T02:59:46.360Z,12.10
2023-04-30T03:02:13.729Z,12.10
2023-04-30T03:04:40.771Z,12.10
2023-04-30T03:07:07.530Z,12.10
2023-04-30T03:09:34.692Z,12.10
2023-04-30T03:12:02.769Z,12.10
2023-04-30T03:14:30.520Z,12.10
2023-04-30T03:16:57.499Z,12.10
2023-04-30T03:19:25.573Z,12.00
2023-04-30T03:21:54.887Z,11.90
2023-04-30T03:24:21.666Z,11.90
2023-04-30T03:26:48.428Z,11.90
2023-04-30T03:29:15.250Z,11.90
2023-04-30T03:31:42.091Z,11.80
2023-04-30T03:34:09.468Z,11.80
2023-04-30T03:36:37.344Z,11.80
2023-04-30T03:39:04.488Z,11.70
2023-04-30T03:41:33.702Z,11.70
2023-04-30T03:44:00.837Z,11.70
2023-04-30T03:46:27.975Z,11.60
2023-04-30T03:48:54.931Z,11.60
2023-04-30T03:51:22.390Z,11.60
2023-04-30T03:53:49.173Z,11.60
2023-04-30T03:56:16.154Z,11.60
2023-04-30T03:58:42.976Z,11.60
2023-04-30T04:01:09.874Z,11.50
2023-04-30T04:03:36.724Z,11.50
2023-04-30T04:06:03.570Z,11.50
2023-04-30T04:08:30.683Z,11.50
2023-04-30T04:10:58.052Z,11.50
2023-04-30T04:13:25.945Z,11.40
2023-04-30T04:15:53.274Z,11.40
2023-04-30T04:18:20.116Z,11.30
2023-04-30T04:20:46.958Z,11.30
2023-04-30T04:23:13.701Z,11.30
2023-04-30T04:25:41.670Z,11.30
2023-04-30T04:28:08.510Z,11.30
2023-04-30T04:30:36.626Z,11.40
2023-04-30T04:33:03.932Z,11.40
2023-04-30T04:35:31.095Z,11.40
2023-04-30T04:37:58.185Z,11.50
2023-04-30T04:40:25.336Z,11.40
2023-04-30T04:42:52.563Z,11.50
2023-04-30T04:45:20.755Z,11.40
2023-04-30T04:47:48.567Z,11.40
2023-04-30T04:50:15.835Z,11.50
2023-04-30T04:52:42.667Z,11.50
2023-04-30T04:55:09.779Z,11.60
2023-04-30T04:57:36.668Z,11.60
2023-04-30T05:00:06.369Z,11.60
2023-04-30T05:02:33.273Z,11.70
2023-04-30T05:05:00.266Z,11.80
2023-04-30T05:07:28.587Z,11.80
2023-04-30T05:09:56.022Z,11.90
2023-04-30T05:12:23.196Z,12.00
2023-04-30T05:14:51.333Z,12.00
2023-04-30T05:17:18.468Z,12.10
2023-04-30T05:19:47.804Z,12.10
2023-04-30T05:22:14.673Z,12.20
2023-04-30T05:24:41.861Z,12.30
2023-04-30T05:27:09.421Z,12.40
2023-04-30T05:29:36.323Z,12.50
2023-04-30T05:32:03.614Z,12.60
2023-04-30T05:34:30.840Z,12.60
2023-04-30T05:36:58.896Z,12.80
2023-04-30T05:39:25.997Z,12.90
2023-04-30T05:41:53.488Z,13.00
2023-04-30T05:44:20.448Z,13.10
2023-04-30T05:46:47.299Z,13.20
2023-04-30T05:49:14.455Z,13.30
2023-04-30T05:51:42.975Z,13.30
2023-04-30T05:54:09.702Z,13.40
2023-04-30T05:56:38.090Z,13.50
2023-04-30T05:59:05.080Z,13.60
2023-04-30T06:01:32.458Z,13.80
2023-04-30T06:04:01.343Z,13.90
2023-04-30T06:06:28.453Z,14.10
2023-04-30T06:08:55.435Z,14.20
2023-04-30T06:11:22.850Z,14.30
2023-04-30T06:13:49.658Z,14.40
2023-04-30T06:16:16.674Z,14.50
2023-04-30T06:18:43.444Z,14.70
2023-04-30T06:21:10.259Z,14.80
2023-04-30T06:23:37.947Z,15.00
2023-04-30T06:26:04.978Z,15.10
2023-04-30T06:28:31.842Z,15.30
2023-04-30T06:30:59.199Z,15.30
2023-04-30T06:33:26.315Z,15.40
2023-04-30T06:35:55.514Z,15.50
2023-04-30T06:38:22.368Z,15.60
2023-04-30T06:40:49.685Z,15.70
2023-04-30T06:43:17.291Z,15.90
2023-04-30T06:45:47.575Z,16.00
2023-04-30T06:48:14.436Z,16.10
2023-04-30T06:50:45.172Z,16.30
2023-04-30T06:53:12.713Z,16.40
2023-04-30T06:55:39.881Z,16.50
2023-04-30T06:58:06.862Z,16.70
2023-04-30T07:00:33.868Z,16.80
2023-04-30T07:03:02.781Z,16.90
2023-04-30T07:05:30.831Z,17.10
2023-04-30T07:07:58.446Z,17.20
2023-04-30T07:10:26.221Z,17.30
2023-04-30T07:12:53.169Z,17.40
2023-04-30T07:15:20.364Z,17.50
2023-04-30T07:17:47.307Z,17.60
2023-04-30T07:20:17.083Z,17.70
2023-04-30T07:22:46.419Z,17.80
2023-04-30T07:25:14.852Z,17.90
2023-04-30T07:27:41.841Z,18.00
2023-04-30T07:30:10.688Z,18.00
2023-04-30T07:32:41.079Z,18.10
2023-04-30T07:35:08.424Z,18.20
2023-04-30T07:37:36.037Z,18.30
2023-04-30T07:40:04.820Z,18.40
2023-04-30T07:42:35.440Z,18.50
2023-04-30T07:45:03.724Z,18.60
2023-04-30T07:47:31.328Z,18.70
2023-04-30T07:49:58.638Z,18.80
2023-04-30T07:52:25.425Z,18.90
2023-04-30T07:54:52.121Z,19.00
2023-04-30T07:57:19.529Z,19.10
2023-04-30T07:59:46.309Z,19.20
2023-04-30T08:02:13.716Z,19.30
2023-04-30T08:04:40.641Z,19.30
2023-04-30T08:07:08.173Z,19.40
2023-04-30T08:09:35.376Z,19.50
2023-04-30T08:12:02.586Z,19.50
2023-04-30T08:14:29.324Z,19.60
2023-04-30T08:16:56.192Z,19.80
2023-04-30T08:19:23.060Z,19.90
2023-04-30T08:21:50.056Z,20.00
2023-04-30T08:24:16.721Z,20.10
2023-04-30T08:26:43.739Z,20.20
2023-04-30T08:29:10.912Z,20.30
2023-04-30T08:31:37.821Z,20.30
2023-04-30T08:34:04.680Z,20.40
2023-04-30T08:36:31.619Z,20.50
2023-04-30T08:38:58.627Z,20.60
2023-04-30T08:41:35.196Z,20.60
2023-04-30T08:44:05.734Z,20.70
2023-04-30T08:46:36.215Z,20.80
2023-04-30T08:49:03.291Z,20.90
2023-04-30T08:51:33.039Z,21.00
2023-04-30T08:53:59.923Z,21.10
2023-04-30T08:56:26.950Z,21.10
2023-04-30T08:58:53.944Z,21.10
2023-04-30T09:01:21.283Z,21.20
2023-04-30T09:03:48.304Z,21.40
2023-04-30T09:06:18.204Z,21.40
2023-04-30T09:08:47.282Z,21.50
2023-04-30T09:11:32.277Z,21.60
2023-04-30T09:14:01.011Z,21.70
2023-04-30T09:16:44.784Z,21.70
2023-04-30T09:19:32.583Z,21.80
2023-04-30T09:21:59.626Z,22.00
2023-04-30T09:24:26.418Z,22.10
2023-04-30T09:26:56.286Z,22.20
2023-04-30T09:29:33.366Z,22.20
2023-04-30T09:32:08.992Z,22.30
2023-04-30T09:34:36.170Z,22.30
2023-04-30T09:37:04.131Z,22.40
2023-04-30T09:39:31.088Z,22.50
2023-04-30T09:42:11.068Z,22.70
2023-04-30T09:44:39.630Z,22.80
2023-04-30T09:47:15.880Z,23.00
2023-04-30T09:49:44.718Z,23.00
2023-04-30T09:52:15.104Z,23.20
2023-04-30T09:54:43.933Z,23.30
2023-04-30T09:57:13.293Z,23.40
2023-04-30T09:59:44.934Z,23.50
2023-04-30T10:02:14.396Z,23.70
2023-04-30T10:04:45.486Z,23.80
2023-04-30T10:07:22.659Z,23.90
2023-04-30T10:09:52.067Z,24.00
2023-04-30T10:12:34.328Z,24.10
2023-04-30T10:15:16.070Z,24.20
2023-04-30T10:17:47.505Z,24.20
2023-04-30T10:20:15.649Z,24.20
2023-04-30T10:22:43.789Z,24.30
2023-04-30T10:25:13.710Z,24.40
2023-04-30T10:27:40.627Z,24.50
2023-04-30T10:30:10.872Z,24.70
2023-04-30T10:32:56.496Z,24.70
2023-04-30T10:35:28.810Z,24.70
2023-04-30T10:38:03.135Z,24.70
2023-04-30T10:40:29.812Z,24.90
2023-04-30T10:42:57.210Z,24.90
2023-04-30T10:45:39.274Z,25.10
2023-04-30T10:48:07.130Z,25.20
2023-04-30T10:50:43.454Z,25.40
2023-04-30T10:53:18.996Z,25.60
2023-04-30T10:55:53.755Z,25.70
2023-04-30T10:58:34.927Z,25.60
2023-04-30T11:01:15.829Z,25.70
2023-04-30T11:04:03.310Z,25.70
2023-04-30T11:06:54.683Z,25.80
2023-04-30T11:09:51.013Z,26.00
2023-04-30T11:12:28.811Z,26.10
2023-04-30T11:15:12.387Z,26.20
2023-04-30T11:17:39.481Z,26.20
2023-04-30T11:20:07.359Z,26.00
2023-04-30T11:22:37.711Z,26.10
2023-04-30T11:25:13.400Z,26.10
2023-04-30T11:27:45.958Z,26.30
2023-04-30T11:30:15.340Z,26.40
2023-04-30T11:32:46.365Z,26.70
2023-04-30T11:35:19.192Z,26.90
2023-04-30T11:37:46.463Z,27.10
2023-04-30T11:40:14.408Z,27.20
2023-04-30T11:42:45.966Z,27.30
2023-04-30T11:45:18.043Z,27.20
2023-04-30T11:47:48.871Z,27.10
2023-04-30T11:50:17.756Z,27.30
2023-04-30T11:52:50.709Z,27.40
2023-04-30T11:55:19.126Z,27.50
2023-04-30T11:57:48.220Z,27.50
2023-04-30T12:00:20.358Z,27.50
2023-04-30T12:02:49.916Z,27.50
2023-04-30T12:05:18.885Z,27.60
2023-04-30T12:07:57.297Z,27.80
2023-04-30T12:10:25.775Z,28.00
2023-04-30T12:12:54.966Z,28.10
2023-04-30T12:15:26.750Z,28.20
2023-04-30T12:17:56.377Z,28.30
2023-04-30T12:20:26.858Z,28.50
2023-04-30T12:22:54.536Z,28.70
2023-04-30T12:25:22.948Z,29.00
2023-04-30T12:27:51.597Z,29.20
2023-04-30T12:30:25.254Z,29.50
2023-04-30T12:32:54.817Z,29.40
2023-04-30T12:35:23.495Z,29.40
2023-04-30T12:37:52.789Z,29.50
2023-04-30T12:40:27.625Z,29.80
2023-04-30T12:43:08.821Z,30.00
2023-04-30T12:45:53.829Z,30.10
2023-04-30T12:48:23.050Z,30.10
2023-04-30T12:51:00.219Z,30.40
2023-04-30T12:53:28.376Z,30.80
2023-04-30T12:56:12.543Z,31.10
2023-04-30T12:58:40.496Z,31.40
2023-04-30T13:01:12.664Z,31.70
2023-04-30T13:03:39.916Z,32.10
2023-04-30T13:06:07.284Z,32.50
2023-04-30T13:08:45.551Z,32.90
2023-04-30T13:11:16.934Z,33.10
2023-04-30T13:13:43.640Z,33.30
2023-04-30T13:16:10.601Z,33.40
2023-04-30T13:18:37.361Z,33.60
2023-04-30T13:21:04.144Z,34.00
2023-04-30T13:23:35.941Z,34.40
2023-04-30T13:26:08.265Z,34.70
2023-04-30T13:28:35.168Z,34.70
2023-04-30T13:31:02.897Z,34.90
2023-04-30T13:33:29.725Z,34.90
2023-04-30T13:35:56.522Z,34.50
2023-04-30T13:38:23.285Z,34.30
2023-04-30T13:40:52.254Z,33.90
2023-04-30T13:43:18.992Z,33.60
2023-04-30T13:45:45.887Z,33.80
2023-04-30T13:48:12.988Z,34.10
2023-04-30T13:50:39.725Z,34.50
2023-04-30T13:53:06.480Z,34.90
2023-04-30T13:55:33.444Z,35.30
2023-04-30T13:58:00.816Z,35.60
2023-04-30T14:00:27.575Z,35.60
2023-04-30T14:02:54.984Z,35.80
2023-04-30T14:05:22.067Z,36.00
2023-04-30T14:07:49.012Z,36.20
2023-04-30T14:10:15.865Z,36.30
2023-04-30T14:12:42.642Z,36.20
2023-04-30T14:15:10.003Z,35.60
2023-04-30T14:17:37.025Z,35.20
2023-04-30T14:20:04.929Z,34.70
2023-04-30T14:22:34.490Z,34.20
2023-04-30T14:25:01.426Z,33.70
2023-04-30T14:27:28.256Z,33.40
2023-04-30T14:29:55.157Z,33.40
2023-04-30T14:32:26.602Z,33.70
2023-04-30T14:34:53.813Z,34.10
2023-04-30T14:37:20.604Z,34.70
2023-04-30T14:39:47.251Z,35.20
2023-04-30T14:42:13.987Z,35.70
2023-04-30T14:44:40.797Z,36.00
2023-04-30T14:47:07.822Z,36.30
2023-04-30T14:49:34.705Z,36.60
2023-04-30T14:52:01.804Z,36.90
2023-04-30T14:54:28.548Z,37.20
2023-04-30T14:56:55.547Z,37.20
2023-04-30T14:59:22.459Z,36.80
2023-04-30T15:01:49.294Z,36.50
2023-04-30T15:04:16.129Z,36.60
2023-04-30T15:06:43.181Z,36.80
2023-04-30T15:09:11.452Z,36.60
2023-04-30T15:11:38.301Z,36.20
2023-04-30T15:14:05.080Z,35.90
2023-04-30T15:16:31.931Z,35.60
2023-04-30T15:18:59.716Z,35.40
2023-04-30T15:21:26.639Z,35.40
2023-04-30T15:23:53.523Z,35.70
2023-04-30T15:26:20.627Z,36.10
2023-04-30T15:28:47.429Z,36.60
2023-04-30T15:31:14.170Z,37.00
2023-04-30T15:33:42.248Z,37.40
2023-04-30T15:36:11.147Z,37.10
2023-04-30T15:38:38.220Z,36.80
2023-04-30T15:41:04.911Z,36.20
2023-04-30T15:43:32.486Z,35.80
2023-04-30T15:45:59.469Z,35.10
2023-04-30T15:48:26.510Z,34.60
2023-04-30T15:50:53.255Z,34.20
2023-04-30T15:53:19.910Z,34.10
2023-04-30T15:55:48.648Z,34.20
2023-04-30T15:58:16.179Z,34.50
2023-04-30T16:00:43.286Z,34.90
2023-04-30T16:03:10.178Z,35.30
2023-04-30T16:05:40.391Z,35.80
2023-04-30T16:08:10.650Z,36.20
2023-04-30T16:10:38.088Z,36.60
2023-04-30T16:13:05.129Z,36.80
2023-04-30T16:15:32.550Z,36.70
2023-04-30T16:17:59.788Z,36.30
2023-04-30T16:20:27.367Z,36.00
2023-04-30T16:22:54.911Z,35.40
2023-04-30T16:25:22.648Z,34.80
2023-04-30T16:27:50.196Z,34.20
2023-04-30T16:30:17.026Z,33.90
2023-04-30T16:32:44.498Z,33.90
2023-04-30T16:35:12.679Z,34.00
2023-04-30T16:37:39.558Z,34.40
2023-04-30T16:40:07.697Z,34.70
2023-04-30T16:42:34.903Z,34.90
2023-04-30T16:45:01.908Z,35.10
2023-04-30T16:47:28.819Z,35.10
2023-04-30T16:49:57.052Z,35.10
2023-04-30T16:52:24.252Z,35.20
2023-04-30T16:54:51.100Z,35.30
2023-04-30T16:57:18.207Z,35.40
2023-04-30T16:59:45.341Z,35.40
2023-04-30T17:02:12.560Z,35.20
2023-04-30T17:04:39.424Z,35.00
2023-04-30T17:07:06.282Z,34.70
2023-04-30T17:09:33.011Z,34.40
2023-04-30T17:11:59.853Z,34.20
2023-04-30T17:14:27.153Z,33.90
2023-04-30T17:16:53.947Z,33.80
2023-04-30T17:19:20.893Z,33.50
2023-04-30T17:21:47.794Z,33.30
2023-04-30T17:24:14.846Z,33.00
2023-04-30T17:26:41.878Z,32.60
2023-04-30T17:29:08.785Z,32.40
2023-04-30T17:31:36.126Z,32.40
2023-04-30T17:34:03.004Z,32.20
2023-04-30T17:36:30.378Z,32.10
2023-04-30T17:38:57.113Z,32.00
2023-04-30T17:41:24.376Z,31.70
2023-04-30T17:43:51.817Z,31.40
2023-04-30T17:46:18.781Z,31.20
2023-04-30T17:48:45.882Z,31.00
2023-04-30T17:51:12.868Z,30.70
2023-04-30T17:53:40.766Z,30.50
2023-04-30T17:56:08.830Z,30.20
2023-04-30T17:58:37.161Z,29.90
2023-04-30T18:01:06.286Z,29.60
2023-04-30T18:03:33.228Z,29.40
2023-04-30T18:05:59.939Z,29.10
2023-04-30T18:08:26.732Z,28.90
2023-04-30T18:10:53.913Z,28.60
2023-04-30T18:13:21.635Z,28.40
2023-04-30T18:15:49.053Z,28.20
2023-04-30T18:18:16.532Z,28.10
2023-04-30T18:20:43.282Z,27.90
2023-04-30T18:23:10.162Z,27.70
2023-04-30T18:25:37.531Z,27.40
2023-04-30T18:28:04.732Z,27.20
2023-04-30T18:30:31.750Z,27.10
2023-04-30T18:32:58.944Z,26.90
2023-04-30T18:35:27.266Z,26.70
2023-04-30T18:37:54.755Z,26.50
2023-04-30T18:40:21.812Z,26.30
2023-04-30T18:42:48.721Z,26.20
2023-04-30T18:45:15.760Z,26.10
2023-04-30T18:47:43.030Z,25.90
2023-04-30T18:50:15.382Z,25.80
2023-04-30T18:52:42.183Z,25.60
2023-04-30T18:55:10.780Z,25.50
2023-04-30T18:57:40.603Z,25.30
2023-04-30T19:00:09.571Z,25.20
2023-04-30T19:02:37.199Z,25.10
2023-04-30T19:05:04.756Z,24.90
2023-04-30T19:07:31.738Z,24.80
2023-04-30T19:09:58.876Z,24.70
2023-04-30T19:12:26.090Z,24.40
2023-04-30T19:14:53.017Z,24.30
2023-04-30T19:17:21.829Z,24.20
2023-04-30T19:19:50.251Z,24.10
2023-04-30T19:22:17.619Z,23.90
2023-04-30T19:24:44.828Z,23.80
2023-04-30T19:27:11.926Z,23.60
2023-04-30T19:29:39.761Z,23.60
2023-04-30T19:32:07.155Z,23.50
2023-04-30T19:34:34.462Z,23.30
2023-04-30T19:37:01.219Z,23.20
2023-04-30T19:39:31.876Z,23.10
2023-04-30T19:41:59.229Z,23.00
2023-04-30T19:44:26.158Z,22.90
2023-04-30T19:46:52.989Z,22.70
2023-04-30T19:49:19.876Z,22.50
2023-04-30T19:51:46.866Z,22.30
2023-04-30T19:54:14.139Z,22.10
2023-04-30T19:56:42.617Z,21.80
2023-04-30T19:59:10.079Z,21.50
2023-04-30T20:01:37.009Z,21.20
2023-04-30T20:04:04.069Z,21.10
2023-04-30T20:06:31.675Z,21.10
2023-04-30T20:09:02.098Z,21.00
2023-04-30T20:11:29.045Z,20.80
2023-04-30T20:13:56.449Z,20.70
2023-04-30T20:16:23.520Z,20.60
2023-04-30T20:18:50.383Z,20.50
2023-04-30T20:21:19.281Z,20.40
2023-04-30T20:23:47.564Z,20.30
2023-04-30T20:26:14.418Z,20.20
2023-04-30T20:28:41.662Z,20.10
2023-04-30T20:31:10.041Z,19.90
2023-04-30T20:33:37.022Z,19.80
2023-04-30T20:36:04.308Z,19.80
2023-04-30T20:38:31.178Z,19.70
2023-04-30T20:40:58.841Z,19.70
2023-04-30T20:43:25.544Z,19.60
2023-04-30T20:45:52.394Z,19.50
2023-04-30T20:48:19.367Z,19.30
2023-04-30T20:50:46.877Z,19.30
2023-04-30T20:53:15.176Z,19.20
2023-04-30T20:55:42.161Z,19.20
2023-04-30T20:58:09.288Z,19.20
2023-04-30T21:00:36.454Z,19.20
2023-04-30T21:03:03.537Z,19.20
2023-04-30T21:05:30.461Z,19.20
2023-04-30T21:08:01.185Z,19.30
2023-04-30T21:10:35.284Z,19.30
2023-04-30T21:13:05.387Z,19.20
2023-04-30T21:15:35.638Z,19.20
2023-04-30T21:18:03.086Z,19.10
2023-04-30T21:20:31.961Z,19.00
2023-04-30T21:22:58.986Z,18.90
2023-04-30T21:25:26.132Z,18.80
2023-04-30T21:27:53.174Z,18.60
2023-04-30T21:30:23.650Z,18.50
2023-04-30T21:32:57.866Z,18.50
2023-04-30T21:35:25.292Z,18.50
2023-04-30T21:37:52.414Z,18.50
2023-04-30T21:40:19.199Z,18.50
2023-04-30T21:42:46.537Z,18.50
2023-04-30T21:45:13.373Z,18.40
2023-04-30T21:47:42.490Z,18.30
2023-04-30T21:50:09.939Z,18.20
2023-04-30T21:52:36.816Z,18.20
2023-04-30T21:55:03.792Z,18.20
2023-04-30T21:57:30.787Z,18.10
2023-04-30T21:59:59.870Z,18.00
2023-04-30T22:02:27.038Z,18.00
2023-04-30T22:04:55.605Z,17.90
2023-04-30T22:07:22.695Z,17.80
2023-04-30T22:09:50.000Z,17.80
2023-04-30T22:12:19.369Z,17.60
2023-04-30T22:14:46.435Z,17.60
2023-04-30T22:17:13.345Z,17.60
2023-04-30T22:19:40.082Z,17.50
2023-04-30T22:22:06.751Z,17.50
2023-04-30T22:24:33.499Z,17.50
2023-04-30T22:27:01.688Z,17.40
2023-04-30T22:29:28.518Z,17.40
2023-04-30T22:31:55.736Z,17.30
2023-04-30T22:34:23.696Z,17.30
2023-04-30T22:36:50.744Z,17.20
2023-04-30T22:39:17.622Z,17.20
2023-04-30T22:41:48.056Z,17.10
2023-04-30T22:44:17.016Z,17.00
2023-04-30T22:46:43.928Z,17.00
2023-04-30T22:49:17.119Z,17.00
2023-04-30T22:51:54.224Z,16.90
2023-04-30T22:54:24.086Z,16.90
2023-04-30T22:56:50.985Z,16.80
2023-04-30T22:59:17.649Z,16.80
2023-04-30T23:01:45.121Z,16.80
2023-04-30T23:04:12.950Z,16.70
2023-04-30T23:06:39.908Z,16.60
2023-04-30T23:09:07.951Z,16.60
2023-04-30T23:11:34.812Z,16.40
2023-04-30T23:14:01.536Z,16.40
2023-04-30T23:16:28.309Z,16.30
2023-04-30T23:18:55.387Z,16.20
2023-04-30T23:21:22.067Z,16.10
2023-04-30T23:23:48.848Z,16.10
2023-04-30T23:26:15.725Z,16.10
2023-04-30T23:28:42.592Z,16.10
2023-04-30T23:31:09.483Z,16.00
2023-04-30T23:33:37.447Z,16.00
2023-04-30T23:36:06.192Z,16.00
2023-04-30T23:38:35.449Z,15.90
2023-04-30T23:41:03.162Z,15.80
2023-04-30T23:43:31.483Z,15.80
2023-04-30T23:45:58.452Z,15.80
2023-04-30T23:48:25.540Z,15.70
2023-04-30T23:51:00.374Z,15.70
2023-04-30T23:53:28.460Z,15.70
2023-04-30T23:56:00.004Z,15.70
2023-04-30T23:58:27.880Z,15.70
